Time;durP1;ratioP1;P1;durP2;ratioP2;P2;SDS_P1;SDS_P2;PMS_P1;PMS_P2;Temp;Humidity;BMP_temperature;BMP_pressure;BME280_temperature;BME280_humidity;BME280_pressure;Samples;Min_cycle;Max_cycle;Signal;HPM_P1;HPM_P2
2023/01/15 00:01:44;;;;;;;5.80;1.13;;;17.70;1.00;;;;;;4995913;28;20053;-38
2023/01/15 00:04:12;;;;;;;3.63;0.85;;;17.60;1.00;;;;;;4995518;28;20601;-37
2023/01/15 00:06:40;;;;;;;7.25;1.02;;;17.60;1.00;;;;;;4994568;28;20069;-37
2023/01/15 00:09:12;;;;;;;5.03;1.08;;;17.60;1.00;;;;;;4995827;28;20049;-38
2023/01/15 00:11:39;;;;;;;5.13;1.95;;;17.60;1.00;;;;;;4995787;28;20049;-38
2023/01/15 00:14:06;;;;;;;6.28;1.33;;;17.50;1.00;;;;;;4995501;28;20439;-37
2023/01/15 00:16:33;;;;;;;7.35;1.67;;;17.50;1.00;;;;;;4995596;28;20042;-38
2023/01/15 00:19:00;;;;;;;4.22;1.20;;;17.50;1.00;;;;;;4994547;28;20050;-38
2023/01/15 00:21:28;;;;;;;3.45;0.95;;;17.40;1.00;;;;;;4995575;28;20145;-38
2023/01/15 00:29:26;;;;;;;4.90;0.85;;;17.40;1.00;;;;;;4995556;28;20039;-37
2023/01/15 00:31:57;;;;;;;5.20;1.50;;;17.30;1.00;;;;;;4995365;28;20042;-37
2023/01/15 00:34:25;;;;;;;6.82;2.10;;;17.30;1.00;;;;;;4995245;28;20049;-38
2023/01/15 00:36:52;;;;;;;4.70;0.98;;;17.30;1.00;;;;;;4995328;28;20051;-39
2023/01/15 00:39:19;;;;;;;4.03;1.88;;;17.30;1.00;;;;;;4993868;28;20077;-38
2023/01/15 00:41:46;;;;;;;7.68;1.48;;;17.20;1.00;;;;;;4995170;28;20088;-38
2023/01/15 00:44:14;;;;;;;6.25;0.93;;;17.20;1.00;;;;;;4993655;28;20070;-38
2023/01/15 00:46:41;;;;;;;4.25;1.33;;;17.10;1.00;;;;;;4993750;28;20137;-38
2023/01/15 00:49:08;;;;;;;5.07;2.35;;;17.20;1.00;;;;;;4995063;28;20509;-37
2023/01/15 00:51:36;;;;;;;5.10;1.05;;;17.20;1.00;;;;;;4993733;28;20141;-37
2023/01/15 00:54:03;;;;;;;7.68;1.70;;;17.10;1.00;;;;;;4994675;28;20536;-38
2023/01/15 00:56:30;;;;;;;4.07;1.35;;;17.10;1.00;;;;;;4994986;28;20043;-37
2023/01/15 00:58:59;;;;;;;5.78;1.52;;;17.00;1.00;;;;;;4995048;28;20047;-38
2023/01/15 01:01:27;;;;;;;5.57;0.75;;;17.10;1.00;;;;;;4994720;28;20151;-39
2023/01/15 01:03:53;;;;;;;7.53;1.17;;;17.00;1.00;;;;;;4993224;28;20042;-38
2023/01/15 01:06:22;;;;;;;8.90;1.15;;;17.00;1.00;;;;;;4993547;28;20037;-37
2023/01/15 01:08:49;;;;;;;3.60;1.10;;;17.00;1.00;;;;;;4993519;28;20178;-38
2023/01/15 01:11:18;;;;;;;4.55;1.25;;;16.90;1.00;;;;;;4993310;28;20073;-37
2023/01/15 01:13:46;;;;;;;6.93;2.03;;;16.90;1.00;;;;;;4993140;28;20048;-37
2023/01/15 01:16:36;;;;;;;6.68;1.23;;;16.90;1.00;;;;;;4993329;28;20085;-37
2023/01/15 01:19:12;;;;;;;8.38;2.13;;;16.90;1.00;;;;;;4993229;28;20200;-38
2023/01/15 01:21:41;;;;;;;7.78;1.58;;;16.80;1.00;;;;;;4994753;28;20038;-38
2023/01/15 01:24:11;;;;;;;7.88;1.90;;;16.80;1.00;;;;;;4992738;28;20049;-37
2023/01/15 01:26:38;;;;;;;4.40;1.23;;;16.80;1.00;;;;;;4994515;28;20057;-38
2023/01/15 01:29:05;;;;;;;8.43;2.22;;;16.80;1.00;;;;;;4994397;28;20039;-38
2023/01/15 01:31:32;;;;;;;5.18;1.48;;;16.80;1.00;;;;;;4992963;28;20101;-37
2023/01/15 01:33:59;;;;;;;6.55;1.30;;;16.70;1.00;;;;;;4994117;28;20093;-37
2023/01/15 01:36:31;;;;;;;3.83;1.08;;;16.70;1.00;;;;;;4992908;28;20046;-38
2023/01/15 01:38:59;;;;;;;5.43;1.08;;;16.70;1.00;;;;;;4994241;28;20121;-37
2023/01/15 01:41:26;;;;;;;7.93;1.13;;;16.70;1.00;;;;;;4992703;28;20531;-37
2023/01/15 01:43:53;;;;;;;4.80;1.60;;;16.70;1.00;;;;;;4993820;28;20043;-37
2023/01/15 01:46:20;;;;;;;6.55;1.73;;;16.60;1.00;;;;;;4994074;28;20050;-37
2023/01/15 01:48:50;;;;;;;6.00;1.13;;;16.60;1.00;;;;;;4994158;28;20387;-37
2023/01/15 01:51:20;;;;;;;3.25;1.05;;;16.60;1.00;;;;;;4992600;28;20418;-37
2023/01/15 01:53:47;;;;;;;5.70;1.85;;;16.60;1.00;;;;;;4992363;28;20478;-37
2023/01/15 01:56:17;;;;;;;9.07;1.60;;;16.60;1.00;;;;;;4992549;28;20417;-37
2023/01/15 01:58:48;;;;;;;6.45;1.30;;;16.60;1.00;;;;;;4991919;28;20140;-37
2023/01/15 02:01:16;;;;;;;6.93;1.17;;;16.50;1.00;;;;;;4993738;28;20046;-37
2023/01/15 02:03:43;;;;;;;11.73;1.92;;;16.50;1.00;;;;;;4993476;28;20498;-37
2023/01/15 02:06:11;;;;;;;5.45;1.20;;;16.50;1.00;;;;;;4993557;28;20049;-37
2023/01/15 02:08:39;;;;;;;6.05;1.55;;;16.50;1.00;;;;;;4992523;28;20050;-41
2023/01/15 02:11:11;;;;;;;10.15;1.70;;;16.50;1.00;;;;;;4992092;28;20513;-37
2023/01/15 02:13:40;;;;;;;7.63;1.48;;;16.40;1.00;;;;;;4992019;28;20457;-37
2023/01/15 02:16:23;;;;;;;7.00;1.63;;;16.40;1.00;;;;;;4993618;28;20404;-37
2023/01/15 02:18:56;;;;;;;4.82;1.30;;;16.40;1.00;;;;;;4992288;28;20101;-37
2023/01/15 02:21:40;;;;;;;5.20;1.60;;;16.40;1.00;;;;;;4993269;28;20120;-37
2023/01/15 02:24:52;;;;;;;6.15;1.33;;;16.40;1.00;;;;;;4993005;28;20045;-37
2023/01/15 02:27:22;;;;;;;5.65;1.60;;;16.30;1.00;;;;;;4963423;28;20149;-37
2023/01/15 02:30:23;;;;;;;5.68;2.00;;;16.30;1.00;;;;;;4993167;28;20117;-37
2023/01/15 02:33:00;;;;;;;6.40;2.47;;;16.30;1.00;;;;;;4991600;28;20066;-37
2023/01/15 02:35:32;;;;;;;;;;;16.30;1.00;;;;;;4992314;28;20478;-37
2023/01/15 02:38:04;;;;;;;4.32;0.90;;;16.20;1.00;;;;;;4991875;28;19933;-37
2023/01/15 02:40:32;;;;;;;3.50;1.00;;;16.20;1.00;;;;;;4992890;28;20374;-37
2023/01/15 02:43:00;;;;;;;5.90;1.40;;;16.20;1.00;;;;;;4991455;28;20050;-36
2023/01/15 02:45:30;;;;;;;8.77;1.80;;;16.20;1.00;;;;;;4992957;28;20038;-36
2023/01/15 02:48:11;;;;;;;4.10;1.17;;;16.20;1.00;;;;;;4991678;28;20053;-37
2023/01/15 02:51:09;;;;;;;4.85;0.93;;;16.10;1.00;;;;;;4992800;28;20066;-36
2023/01/15 02:53:40;;;;;;;3.75;0.88;;;16.10;1.00;;;;;;5007616;28;20054;-36
2023/01/15 02:56:12;;;;;;;6.45;1.20;;;16.10;1.00;;;;;;4991566;28;20053;-37
2023/01/15 02:58:48;;;;;;;6.47;1.73;;;16.10;1.00;;;;;;4992849;28;20073;-37
2023/01/15 03:01:25;;;;;;;7.40;1.10;;;16.10;1.00;;;;;;4991573;28;20064;-37
2023/01/15 03:04:06;;;;;;;4.88;0.77;;;16.00;1.00;;;;;;4991306;28;20088;-37
2023/01/15 03:06:43;;;;;;;5.32;0.90;;;16.00;1.00;;;;;;4991398;28;20050;-37
2023/01/15 03:09:12;;;;;;;5.60;0.85;;;16.00;1.00;;;;;;4991298;28;20443;-37
2023/01/15 03:11:48;;;;;;;4.60;1.48;;;16.00;1.00;;;;;;4990527;28;20046;-37
2023/01/15 03:14:23;;;;;;;4.03;0.85;;;16.00;1.00;;;;;;4991161;28;20494;-37
2023/01/15 03:16:57;;;;;;;7.28;1.65;;;16.00;1.00;;;;;;4991306;28;20497;-36
2023/01/15 03:19:52;;;;;;;7.03;1.15;;;15.90;1.00;;;;;;4992629;28;20069;-37
2023/01/15 03:22:25;;;;;;;5.50;0.98;;;15.90;1.00;;;;;;4991047;28;20078;-36
2023/01/15 03:25:15;;;;;;;9.05;1.15;;;15.90;1.00;;;;;;4990983;28;20462;-36
2023/01/15 03:27:46;;;;;;;;;;;15.90;1.00;;;;;;4991758;28;20097;-37
2023/01/15 03:30:18;;;;;;;5.63;1.13;;;15.80;1.00;;;;;;4990973;28;19921;-38
2023/01/15 03:32:46;;;;;;;6.07;1.40;;;15.80;1.00;;;;;;4992155;28;20289;-38
2023/01/15 03:35:47;;;;;;;6.00;1.77;;;15.80;1.00;;;;;;4991118;28;20461;-38
2023/01/15 03:38:34;;;;;;;5.47;0.95;;;15.80;1.00;;;;;;4991078;28;20054;-38
2023/01/15 03:41:32;;;;;;;7.80;1.40;;;15.70;1.00;;;;;;4990977;28;20535;-37
2023/01/15 03:44:11;;;;;;;5.93;1.42;;;15.70;1.00;;;;;;4990743;28;20653;-38
2023/01/15 03:46:49;;;;;;;3.50;1.60;;;15.70;1.00;;;;;;4989584;28;20074;-38
2023/01/15 03:49:20;;;;;;;4.18;1.08;;;15.70;1.00;;;;;;4991006;28;20042;-38
2023/01/15 03:52:03;;;;;;;4.60;1.23;;;15.70;1.00;;;;;;4990941;28;20097;-37
2023/01/15 03:54:49;;;;;;;8.90;1.30;;;15.70;1.00;;;;;;4992149;28;20441;-37
2023/01/15 03:57:28;;;;;;;5.95;1.30;;;15.70;1.00;;;;;;4990891;28;20047;-37
2023/01/15 03:59:59;;;;;;;5.68;1.52;;;15.60;1.00;;;;;;4992141;28;20093;-37
2023/01/15 04:02:30;;;;;;;6.57;1.42;;;15.60;1.00;;;;;;4992118;28;20058;-38
2023/01/15 04:04:58;;;;;;;4.50;1.20;;;15.60;1.00;;;;;;4990825;28;20093;-37
2023/01/15 04:07:26;;;;;;;9.45;2.22;;;15.60;1.00;;;;;;4990674;28;20043;-37
2023/01/15 04:09:54;;;;;;;6.43;2.20;;;15.60;1.00;;;;;;4992064;28;20084;-37
2023/01/15 04:12:21;;;;;;;7.55;1.38;;;15.60;1.00;;;;;;4990603;28;20053;-37
2023/01/15 04:14:47;;;;;;;7.28;1.27;;;15.60;1.00;;;;;;4991995;28;20390;-38
2023/01/15 04:17:17;;;;;;;11.35;1.52;;;15.60;1.00;;;;;;4990813;28;20593;-37
2023/01/15 04:19:44;;;;;;;5.82;1.40;;;15.60;1.00;;;;;;4992032;28;20413;-37
2023/01/15 04:22:12;;;;;;;6.05;1.70;;;15.60;1.00;;;;;;4992276;28;20137;-37
2023/01/15 04:24:40;;;;;;;3.90;1.30;;;15.50;1.00;;;;;;4995258;28;20042;-37
2023/01/15 04:27:07;;;;;;;12.30;1.65;;;15.50;1.00;;;;;;4995535;28;20069;-37
2023/01/15 04:29:34;;;;;;;3.72;0.88;;;15.50;1.00;;;;;;4995505;28;20150;-37
2023/01/15 04:32:01;;;;;;;3.45;0.80;;;15.50;1.00;;;;;;4994203;28;20046;-38
2023/01/15 04:34:28;;;;;;;5.97;1.30;;;15.50;1.00;;;;;;4993773;28;20445;-37
2023/01/15 04:36:56;;;;;;;5.65;1.40;;;15.50;1.00;;;;;;4995253;28;20052;-37
2023/01/15 04:39:23;;;;;;;6.47;1.15;;;15.40;1.00;;;;;;4995265;28;20068;-37
2023/01/15 04:44:36;;;;;;;6.20;1.17;;;15.40;1.00;;;;;;4995017;28;20046;-37
2023/01/15 04:47:03;;;;;;;5.57;1.20;;;15.40;1.00;;;;;;4995031;28;20085;-37
2023/01/15 04:49:29;;;;;;;3.92;1.10;;;15.40;1.00;;;;;;4992973;28;20081;-37
2023/01/15 04:51:56;;;;;;;5.32;1.58;;;15.40;1.00;;;;;;4994557;28;20038;-37
2023/01/15 04:54:23;;;;;;;3.17;1.00;;;15.40;1.00;;;;;;4994539;28;20038;-37
2023/01/15 04:56:52;;;;;;;4.90;1.00;;;15.40;1.00;;;;;;5003935;28;20046;-36
2023/01/15 04:59:23;;;;;;;2.72;0.98;;;15.30;1.00;;;;;;4996163;28;20068;-38
2023/01/15 05:01:51;;;;;;;6.95;1.20;;;15.30;1.00;;;;;;5005091;28;20504;-37
2023/01/15 05:04:30;;;;;;;4.28;0.80;;;15.30;1.00;;;;;;5008766;28;20046;-38
2023/01/15 05:06:57;;;;;;;9.02;1.73;;;15.30;1.00;;;;;;5014456;28;20042;-37
2023/01/15 05:09:24;;;;;;;5.00;1.10;;;15.30;1.00;;;;;;5014277;28;20074;-37
2023/01/15 05:11:50;;;;;;;7.10;1.30;;;15.30;1.00;;;;;;5014344;28;20042;-37
2023/01/15 05:14:17;;;;;;;3.70;1.27;;;15.30;1.00;;;;;;5012649;28;20120;-37
2023/01/15 05:16:44;;;;;;;3.50;1.10;;;15.20;1.00;;;;;;5014113;28;20125;-38
2023/01/15 05:19:11;;;;;;;5.47;1.08;;;15.20;1.00;;;;;;5014130;28;20457;-37
2023/01/15 05:21:41;;;;;;;4.50;1.00;;;15.20;1.00;;;;;;5004723;28;20046;-37
2023/01/15 05:24:12;;;;;;;3.50;1.10;;;15.20;1.00;;;;;;5013540;28;20076;-37
2023/01/15 05:26:39;;;;;;;6.13;1.35;;;15.20;1.00;;;;;;5014036;28;20053;-37
2023/01/15 05:29:06;;;;;;;5.72;1.45;;;15.20;1.00;;;;;;5013796;28;20046;-38
2023/01/15 05:31:32;;;;;;;8.95;1.60;;;15.20;1.00;;;;;;5013940;28;20088;-38
2023/01/15 05:34:00;;;;;;;9.77;1.52;;;15.20;1.00;;;;;;5012597;28;20041;-38
2023/01/15 05:36:29;;;;;;;2.60;1.15;;;15.20;1.00;;;;;;5013796;28;20038;-37
2023/01/15 05:39:00;;;;;;;4.63;1.40;;;15.20;1.00;;;;;;5012810;28;20468;-37
2023/01/15 05:44:13;;;;;;;5.93;1.80;;;15.10;1.00;;;;;;5013350;28;20045;-38
2023/01/15 05:46:42;;;;;;;5.95;1.08;;;15.10;1.00;;;;;;5013689;28;20038;-37
2023/01/15 05:49:12;;;;;;;4.50;0.85;;;15.10;1.00;;;;;;5013573;28;20052;-37
2023/01/15 05:51:40;;;;;;;4.13;1.35;;;15.10;1.00;;;;;;5013545;28;20037;-37
2023/01/15 05:54:10;;;;;;;6.68;1.15;;;15.10;1.00;;;;;;5013058;28;20060;-37
2023/01/15 05:56:37;;;;;;;6.75;1.00;;;15.10;1.00;;;;;;5013500;28;20088;-38
2023/01/15 05:59:06;;;;;;;6.15;1.45;;;15.10;1.00;;;;;;5013365;28;20045;-38
2023/01/15 06:01:33;;;;;;;6.60;1.67;;;15.00;1.00;;;;;;5013351;28;20414;-37
2023/01/15 06:04:01;;;;;;;4.80;1.30;;;15.00;1.00;;;;;;5012993;28;20107;-37
2023/01/15 06:06:28;;;;;;;3.97;1.10;;;15.00;1.00;;;;;;5013211;28;20038;-38
2023/01/15 06:08:54;;;;;;;8.05;1.02;;;15.00;1.00;;;;;;5013268;28;20075;-37
2023/01/15 06:11:21;;;;;;;5.15;1.35;;;15.00;1.00;;;;;;5013169;28;20489;-37
2023/01/15 06:13:48;;;;;;;7.97;1.33;;;15.00;1.00;;;;;;5013035;28;20423;-37
2023/01/15 06:16:15;;;;;;;7.07;1.13;;;15.00;1.00;;;;;;4995419;28;20552;-37
2023/01/15 06:18:42;;;;;;;8.02;1.50;;;15.00;1.00;;;;;;4993510;28;20053;-37
2023/01/15 06:21:11;;;;;;;5.53;1.30;;;15.00;1.00;;;;;;4993297;28;20050;-37
2023/01/15 06:23:39;;;;;;;9.77;2.47;;;14.90;1.00;;;;;;4993286;28;20038;-37
2023/01/15 06:26:10;;;;;;;9.55;1.48;;;15.00;1.00;;;;;;4993197;28;20490;-37
2023/01/15 06:28:36;;;;;;;5.93;1.30;;;15.00;1.00;;;;;;4993439;28;20042;-37
2023/01/15 06:31:09;;;;;;;7.00;1.40;;;14.90;1.00;;;;;;4993204;28;20061;-37
2023/01/15 06:33:37;;;;;;;4.63;1.67;;;14.90;1.00;;;;;;4992851;28;20117;-37
2023/01/15 06:36:12;;;;;;;6.10;0.90;;;14.90;1.00;;;;;;4993142;28;20054;-37
2023/01/15 06:38:40;;;;;;;6.35;0.98;;;14.90;1.00;;;;;;4993237;28;20499;-37
2023/01/15 06:47:33;;;;;;;3.92;0.80;;;14.80;1.00;;;;;;4993026;28;20038;-37
2023/01/15 06:49:36;;;;;;;6.65;1.45;;;14.80;1.00;;;;;;4985967;28;20050;-37
2023/01/15 06:52:03;;;;;;;3.70;1.30;;;14.80;1.00;;;;;;4992873;28;20034;-37
2023/01/15 06:54:30;;;;;;;6.22;1.70;;;14.80;1.00;;;;;;4992547;28;20073;-37
2023/01/15 06:56:57;;;;;;;6.45;1.73;;;14.80;1.00;;;;;;4992874;28;20050;-37
2023/01/15 06:59:24;;;;;;;8.25;1.50;;;14.80;1.00;;;;;;4992681;28;20060;-37
2023/01/15 07:01:51;;;;;;;7.55;1.58;;;14.80;1.00;;;;;;4992701;28;20046;-37
2023/01/15 07:04:18;;;;;;;4.60;1.35;;;14.80;1.00;;;;;;4992358;28;20042;-37
2023/01/15 07:06:45;;;;;;;6.05;1.08;;;14.80;1.00;;;;;;4992684;28;20054;-37
2023/01/15 07:09:11;;;;;;;7.70;1.70;;;14.80;1.00;;;;;;4992541;28;20039;-37
2023/01/15 07:11:51;;;;;;;7.45;2.35;;;14.70;1.00;;;;;;4992603;28;20041;-37
2023/01/15 07:14:23;;;;;;;5.82;1.52;;;14.70;1.00;;;;;;4992393;28;20449;-37
2023/01/15 07:16:51;;;;;;;7.20;1.48;;;14.70;1.00;;;;;;4991297;28;20042;-37
2023/01/15 07:19:18;;;;;;;6.88;1.45;;;14.70;1.00;;;;;;4991295;28;20069;-36
2023/01/15 07:21:46;;;;;;;4.30;1.30;;;14.70;1.00;;;;;;4992474;28;20046;-37
2023/01/15 07:24:13;;;;;;;6.45;2.00;;;14.70;1.00;;;;;;4990896;28;20042;-37
2023/01/15 07:26:41;;;;;;;7.72;1.83;;;14.70;1.00;;;;;;4992475;28;20374;-37
2023/01/15 07:29:08;;;;;;;6.65;1.63;;;14.70;1.00;;;;;;4991057;28;20508;-38
2023/01/15 07:31:35;;;;;;;7.40;1.15;;;14.70;1.00;;;;;;4992170;28;20050;-37
2023/01/15 07:34:02;;;;;;;5.88;1.05;;;14.60;1.00;;;;;;4990444;28;20141;-38
2023/01/15 07:36:28;;;;;;;3.38;1.25;;;14.60;1.00;;;;;;4992130;28;20129;-36
2023/01/15 07:38:55;;;;;;;8.73;1.80;;;14.70;1.00;;;;;;4991778;28;20427;-36
2023/01/15 07:49:46;;;;;;;6.13;1.35;;;14.60;1.00;;;;;;4992068;28;20051;-36
2023/01/15 07:52:14;;;;;;;6.90;1.45;;;14.70;1.00;;;;;;4991790;28;20042;-36
2023/01/15 07:54:40;;;;;;;7.13;1.25;;;14.70;1.00;;;;;;4991746;28;20408;-36
2023/01/15 07:57:08;;;;;;;10.32;1.75;;;14.80;1.00;;;;;;4992537;28;20043;-36
2023/01/15 07:59:34;;;;;;;3.60;1.23;;;14.90;1.00;;;;;;4991317;28;20081;-36
2023/01/15 08:02:01;;;;;;;7.97;1.27;;;14.90;1.00;;;;;;4989813;28;20474;-36
2023/01/15 08:04:28;;;;;;;6.95;1.80;;;15.10;1.00;;;;;;4990299;28;20041;-37
2023/01/15 08:06:57;;;;;;;3.47;0.82;;;15.20;1.00;;;;;;4990964;28;20066;-37
2023/01/15 08:09:24;;;;;;;6.65;1.58;;;15.30;1.00;;;;;;4989482;28;20552;-37
2023/01/15 08:17:22;;;;;;;3.30;1.00;;;15.60;1.00;;;;;;4995645;28;20398;-37
2023/01/15 08:19:48;;;;;;;7.28;1.63;;;15.70;1.00;;;;;;4995504;28;20129;-37
2023/01/15 08:22:15;;;;;;;7.97;1.63;;;15.70;1.00;;;;;;4995479;28;20046;-37
2023/01/15 08:24:42;;;;;;;5.03;0.98;;;15.80;1.00;;;;;;4995372;28;20046;-37
2023/01/15 08:27:09;;;;;;;3.63;0.95;;;15.90;1.00;;;;;;5001481;28;20033;-37
2023/01/15 08:29:35;;;;;;;10.55;1.65;;;15.90;1.00;;;;;;5000844;28;20501;-37
2023/01/15 08:32:02;;;;;;;10.98;1.50;;;15.90;1.00;;;;;;5005813;28;20053;-37
2023/01/15 08:34:29;;;;;;;9.10;1.60;;;16.00;1.00;;;;;;5014601;28;20041;-37
2023/01/15 08:36:58;;;;;;;8.93;2.05;;;16.00;1.00;;;;;;4999928;28;20489;-37
2023/01/15 08:39:26;;;;;;;7.75;1.42;;;16.00;1.00;;;;;;4995139;28;20046;-37
2023/01/15 08:41:56;;;;;;;15.15;2.53;;;16.00;1.00;;;;;;5004527;28;20046;-37
2023/01/15 08:44:23;;;;;;;14.85;2.97;;;16.00;1.00;;;;;;5014507;28;20046;-37
2023/01/15 08:46:50;;;;;;;12.30;2.72;;;15.90;1.00;;;;;;5014613;28;20037;-37
2023/01/15 08:49:19;;;;;;;11.10;2.25;;;15.90;1.00;;;;;;5014649;28;20133;-38
2023/01/15 08:51:50;;;;;;;15.52;3.08;;;15.90;1.00;;;;;;5003541;28;20043;-38
2023/01/15 08:54:19;;;;;;;14.52;2.00;;;15.90;1.00;;;;;;4989796;28;20070;-38
2023/01/15 08:56:46;;;;;;;8.27;2.03;;;15.90;1.00;;;;;;4994422;28;20038;-38
2023/01/15 08:59:13;;;;;;;7.65;1.85;;;15.90;1.00;;;;;;4998473;28;20042;-38
2023/01/15 09:01:40;;;;;;;11.18;1.83;;;15.90;1.00;;;;;;4997507;28;20045;-38
2023/01/15 09:04:12;;;;;;;7.97;1.83;;;15.90;1.00;;;;;;5003976;28;20046;-38
2023/01/15 09:06:38;;;;;;;7.53;1.33;;;15.90;1.00;;;;;;5007039;28;20072;-38
2023/01/15 09:09:05;;;;;;;4.03;1.15;;;15.90;1.00;;;;;;4992901;28;20096;-38
2023/01/15 09:11:32;;;;;;;8.10;2.25;;;15.90;1.00;;;;;;4994198;28;20498;-37
2023/01/15 09:13:59;;;;;;;12.82;1.95;;;15.90;1.00;;;;;;5002714;28;20541;-38
2023/01/15 09:16:26;;;;;;;10.70;2.10;;;15.90;1.00;;;;;;5003486;28;20046;-38
2023/01/15 09:18:54;;;;;;;9.38;2.10;;;15.90;1.00;;;;;;5003966;28;20053;-37
2023/01/15 09:21:22;;;;;;;8.85;2.10;;;15.90;1.00;;;;;;5004578;28;20490;-38
2023/01/15 09:23:51;;;;;;;5.78;1.30;;;15.90;1.00;;;;;;5004737;28;20038;-38
2023/01/15 09:26:38;;;;;;;13.23;2.13;;;15.80;1.00;;;;;;5004841;28;20038;-38
2023/01/15 09:29:07;;;;;;;11.80;1.92;;;15.90;1.00;;;;;;5003570;28;20045;-38
2023/01/15 09:31:34;;;;;;;7.85;1.90;;;15.80;1.00;;;;;;5005113;28;20117;-38
2023/01/15 09:34:01;;;;;;;9.35;1.75;;;15.80;1.00;;;;;;5004022;28;20053;-37
2023/01/15 09:36:33;;;;;;;10.02;2.75;;;15.80;1.00;;;;;;5006852;28;20314;-38
2023/01/15 09:39:00;;;;;;;6.45;1.08;;;15.80;1.00;;;;;;5004043;28;20038;-38
2023/01/15 09:42:04;;;;;;;8.35;2.00;;;15.80;1.00;;;;;;5005131;28;20052;-38
2023/01/15 09:44:49;;;;;;;9.43;2.08;;;15.70;1.00;;;;;;4981715;28;20509;-37
2023/01/15 09:47:25;;;;;;;11.88;1.52;;;15.70;1.00;;;;;;4998908;28;20080;-37
2023/01/15 09:50:19;;;;;;;5.50;1.67;;;15.70;1.00;;;;;;4992286;28;20145;-37
2023/01/15 09:53:19;;;;;;;7.95;2.38;;;15.70;1.00;;;;;;4994157;28;20050;-38
2023/01/15 09:55:48;;;;;;;11.50;1.98;;;15.60;1.00;;;;;;4999458;28;20081;-38
2023/01/15 09:58:19;;;;;;;14.98;2.03;;;15.60;1.00;;;;;;5005035;28;20482;-38
2023/01/15 10:00:49;;;;;;;16.50;2.97;;;15.60;1.00;;;;;;5013214;28;20042;-38
2023/01/15 10:03:35;;;;;;;13.43;3.08;;;15.60;1.00;;;;;;5012917;28;20046;-38
2023/01/15 10:06:48;;;;;;;10.18;1.85;;;15.60;1.00;;;;;;5013144;28;20125;-37
2023/01/15 10:09:22;;;;;;;8.65;2.58;;;15.50;1.00;;;;;;4971874;28;20047;-38
2023/01/15 10:15:06;;;;;;;12.50;2.75;;;15.50;1.00;;;;;;4997870;28;20050;-38
2023/01/15 10:17:47;;;;;;;9.65;1.77;;;15.50;1.00;;;;;;5001926;28;20095;-38
2023/01/15 10:20:29;;;;;;;11.43;2.25;;;15.40;1.00;;;;;;5005078;28;20108;-38
2023/01/15 10:23:16;;;;;;;5.20;2.00;;;15.40;1.00;;;;;;5012715;28;20116;-38
2023/01/15 10:25:53;;;;;;;9.73;2.67;;;15.40;1.00;;;;;;5013009;28;20046;-38
2023/01/15 10:28:28;;;;;;;10.27;2.03;;;15.40;1.00;;;;;;5011658;28;20038;-38
2023/01/15 10:31:05;;;;;;;8.07;1.75;;;15.40;1.00;;;;;;5012793;28;20046;-38
2023/01/15 10:33:49;;;;;;;7.70;1.45;;;15.40;1.00;;;;;;5012630;28;20121;-38
2023/01/15 10:36:27;;;;;;;7.07;1.85;;;15.30;1.00;;;;;;5012393;28;20050;-39
2023/01/15 10:39:07;;;;;;;11.90;3.05;;;15.30;1.00;;;;;;5011336;28;20042;-38
2023/01/15 10:41:48;;;;;;;8.52;1.38;;;15.30;1.00;;;;;;5012568;28;20284;-37
2023/01/15 10:44:34;;;;;;;6.78;1.80;;;15.30;1.00;;;;;;5012343;28;20498;-37
2023/01/15 10:47:02;;;;;;;11.73;1.73;;;15.20;1.00;;;;;;5006000;28;20046;-37
2023/01/15 10:49:30;;;;;;;14.65;2.65;;;15.20;1.00;;;;;;4992949;28;20465;-37
2023/01/15 10:52:04;;;;;;;7.82;1.65;;;15.20;1.00;;;;;;4995760;28;20153;-38
2023/01/15 10:54:38;;;;;;;12.02;2.55;;;15.20;1.00;;;;;;4999313;28;20054;-37
2023/01/15 10:57:16;;;;;;;9.02;1.77;;;15.20;1.00;;;;;;4992619;28;20070;-36
2023/01/15 10:59:57;;;;;;;6.68;1.88;;;15.20;1.00;;;;;;4992658;28;20105;-38
2023/01/15 11:02:41;;;;;;;9.18;1.80;;;15.10;1.00;;;;;;4990217;28;20120;-38
2023/01/15 11:05:14;;;;;;;6.70;1.65;;;15.10;1.00;;;;;;4991837;28;20042;-37
2023/01/15 11:07:45;;;;;;;9.88;2.10;;;15.10;1.00;;;;;;4991424;28;20054;-37
2023/01/15 11:10:32;;;;;;;6.75;2.17;;;15.10;1.00;;;;;;4992403;28;20057;-38
2023/01/15 11:19:36;;;;;;;8.68;2.45;;;15.00;1.00;;;;;;4969412;28;20145;-38
2023/01/15 11:21:55;;;;;;;6.38;1.95;;;15.00;1.00;;;;;;4991342;28;20081;-37
2023/01/15 11:24:22;;;;;;;6.85;1.83;;;15.00;1.00;;;;;;4991047;28;20073;-37
2023/01/15 11:26:51;;;;;;;9.85;2.28;;;14.90;1.00;;;;;;4992210;28;20050;-38
2023/01/15 11:29:38;;;;;;;9.70;1.95;;;14.90;1.00;;;;;;4976515;28;20042;-37
2023/01/15 11:32:34;;;;;;;9.82;2.15;;;14.90;1.00;;;;;;4994701;28;20100;-37
2023/01/15 11:35:17;;;;;;;7.18;2.05;;;14.90;1.00;;;;;;5000212;28;20034;-37
2023/01/15 11:37:44;;;;;;;9.25;1.85;;;14.90;1.00;;;;;;4992863;28;20074;-38
2023/01/15 11:40:22;;;;;;;10.02;1.83;;;14.90;1.00;;;;;;5002397;28;20034;-38
2023/01/15 11:51:45;;;;;;;5.05;2.15;;;14.80;1.00;;;;;;5007581;28;20105;-37
2023/01/15 11:54:14;;;;;;;9.95;2.08;;;14.80;1.00;;;;;;5003661;28;20034;-37
2023/01/15 11:56:45;;;;;;;5.97;1.75;;;14.80;1.00;;;;;;5010529;28;20042;-38
2023/01/15 11:59:18;;;;;;;8.85;1.77;;;14.80;1.00;;;;;;5007280;28;20042;-37
2023/01/15 12:01:56;;;;;;;9.30;2.30;;;14.70;1.00;;;;;;5011189;28;20041;-36
2023/01/15 12:04:48;;;;;;;7.47;1.45;;;14.70;1.00;;;;;;5015204;28;20125;-36
2023/01/15 12:07:18;;;;;;;8.32;2.08;;;14.70;1.00;;;;;;5014075;28;20054;-36
2023/01/15 12:10:04;;;;;;;9.27;1.60;;;14.70;1.00;;;;;;5026134;23;20054;-32
2023/01/15 12:12:49;;;;;;;10.02;2.75;;;14.70;1.00;;;;;;5013907;28;20313;-30
2023/01/15 12:15:31;;;;;;;9.55;1.95;;;14.70;1.00;;;;;;5023098;28;20057;-31
2023/01/15 12:18:01;;;;;;;8.52;1.67;;;14.70;1.00;;;;;;5015159;28;20048;-30
2023/01/15 12:20:37;;;;;;;13.48;2.58;;;14.60;1.00;;;;;;5015490;28;20038;-30
2023/01/15 12:23:34;;;;;;;6.60;1.65;;;14.70;1.00;;;;;;5014824;28;20042;-30
2023/01/15 12:26:27;;;;;;;7.25;2.05;;;14.60;1.00;;;;;;5014966;28;20095;-31
2023/01/15 12:28:59;;;;;;;6.80;1.83;;;14.60;1.00;;;;;;5014969;28;20053;-30
2023/01/15 12:31:45;;;;;;;5.22;1.48;;;14.60;1.00;;;;;;5014989;28;20037;-30
2023/01/15 12:34:19;;;;;;;8.75;1.33;;;14.60;1.00;;;;;;5018990;28;20160;-30
2023/01/15 12:36:49;;;;;;;6.60;1.45;;;14.60;1.00;;;;;;5026097;28;20053;-30
2023/01/15 12:39:44;;;;;;;8.27;1.58;;;14.60;1.00;;;;;;5034536;28;20042;-30
2023/01/15 12:45:20;;;;;;;6.57;1.15;;;14.50;1.00;;;;;;5034220;28;20116;-31
2023/01/15 12:48:13;;;;;;;8.90;1.95;;;14.50;1.00;;;;;;5033899;28;20088;-31
2023/01/15 12:50:49;;;;;;;11.35;1.52;;;14.50;1.00;;;;;;5024671;28;20558;-31
2023/01/15 12:53:46;;;;;;;5.68;1.75;;;14.50;1.00;;;;;;5033879;28;20045;-31
2023/01/15 12:56:46;;;;;;;10.52;1.63;;;14.50;1.00;;;;;;5027828;28;20033;-31
2023/01/15 12:59:39;;;;;;;6.32;1.15;;;14.50;1.00;;;;;;5015058;28;20470;-31
2023/01/15 13:02:33;;;;;;;12.52;2.58;;;14.50;1.00;;;;;;5014272;28;20046;-31
2023/01/15 13:05:16;;;;;;;;;;;14.40;1.00;;;;;;5014609;28;20050;-31
2023/01/15 13:08:00;;;;;;;8.57;1.23;;;14.50;1.00;;;;;;5018710;28;19929;-31
2023/01/15 13:10:33;;;;;;;5.70;2.17;;;14.40;1.00;;;;;;4999932;28;20046;-30
2023/01/15 13:13:34;;;;;;;4.93;1.30;;;14.40;1.00;;;;;;5018884;28;20048;-31
2023/01/15 13:16:13;;;;;;;9.75;2.47;;;14.40;1.00;;;;;;5032395;28;20119;-30
2023/01/15 13:19:17;;;;;;;12.48;1.90;;;14.40;1.00;;;;;;5033627;28;20053;-30
2023/01/15 13:21:50;;;;;;;6.00;1.35;;;14.40;1.00;;;;;;5033637;28;20513;-30
2023/01/15 13:24:35;;;;;;;8.75;1.67;;;14.40;1.00;;;;;;5033523;28;20685;-30
2023/01/15 13:27:30;;;;;;;7.97;1.40;;;14.40;1.00;;;;;;5033524;28;20045;-30
2023/01/15 13:30:13;;;;;;;8.82;1.80;;;14.30;1.00;;;;;;5033694;28;20038;-31
2023/01/15 13:32:51;;;;;;;8.48;1.80;;;14.30;1.00;;;;;;5031966;28;20053;-31
2023/01/15 13:35:27;;;;;;;6.93;1.80;;;14.30;1.00;;;;;;5033507;28;20064;-31
2023/01/15 13:38:02;;;;;;;6.53;1.60;;;14.30;1.00;;;;;;5033341;28;20059;-31
2023/01/15 13:40:37;;;;;;;5.97;1.25;;;14.30;1.00;;;;;;5033303;28;20053;-31
2023/01/15 13:43:19;;;;;;;10.07;1.83;;;14.30;1.00;;;;;;5032924;28;20045;-31
2023/01/15 13:45:49;;;;;;;10.02;1.70;;;14.30;1.00;;;;;;5033133;28;20053;-31
2023/01/15 13:48:25;;;;;;;7.25;1.50;;;14.30;1.00;;;;;;5033263;28;20042;-31
2023/01/15 13:50:57;;;;;;;6.13;1.65;;;14.30;1.00;;;;;;5033166;28;20060;-31
2023/01/15 13:53:38;;;;;;;8.68;1.45;;;14.30;1.00;;;;;;5031589;28;20037;-31
2023/01/15 13:56:24;;;;;;;3.75;1.17;;;14.30;1.00;;;;;;5032770;28;20041;-31
2023/01/15 13:59:05;;;;;;;6.32;1.23;;;14.30;1.00;;;;;;5032562;28;20041;-31
2023/01/15 14:01:38;;;;;;;11.23;2.42;;;14.30;1.00;;;;;;5032270;28;20058;-31
2023/01/15 14:04:08;;;;;;;5.15;1.15;;;14.30;1.00;;;;;;5031487;28;20046;-31
2023/01/15 14:06:45;;;;;;;6.05;1.38;;;14.20;1.00;;;;;;5032145;28;20048;-31
2023/01/15 14:09:21;;;;;;;5.65;1.65;;;14.30;1.00;;;;;;5019228;28;20477;-31
2023/01/15 14:12:06;;;;;;;6.30;1.52;;;14.20;1.00;;;;;;5006799;28;20056;-31
2023/01/15 14:14:39;;;;;;;5.85;1.65;;;14.30;1.00;;;;;;5009131;28;20046;-31
2023/01/15 14:17:34;;;;;;;4.95;1.38;;;14.40;1.00;;;;;;5010572;28;20107;-31
2023/01/15 14:20:03;;;;;;;4.93;1.15;;;14.50;1.00;;;;;;5004147;28;20045;-31